Hoegh Berlin — C6XQ4 — position and weather

sailwx.info

Track history (hours):
 
Tides and Currents Weather Stations Pressure Air Temp Water Temp Dewpoint Dewpoint Depression Visibility Wind Speed Wind Dir Waves Ship Positions

Hoegh Berlin

Last reported at 2016-Aug-23 20:31 UTC. Time now 2016-Aug-23 21:04 UTC.
Position N 19°13' W 096°08'.

Length 228 m; draft 8.4 m.

Type: Cargo ship. MMSI: 311019100.

Date/timePositionNaut miles runAvg speedWind from/ knotsBaromVisibWave heightAir tempDewpointWater temp
2016-Aug-23 20:31N 19°13' W 096°08'0 0.0
2016-Aug-23 19:31N 19°13' W 096°08'0 0.0
2016-Aug-23 18:31N 19°13' W 096°08'1 0.8
2016-Aug-23 17:34N 19°12' W 096°08'7 7.2
2016-Aug-23 16:33N 19°10' W 096°01'0 0.3
2016-Aug-23 15:31N 19°10' W 096°01'0 0.1
2016-Aug-23 14:25N 19°10' W 096°00'0 0.1
2016-Aug-23 13:31N 19°10' W 096°01'0 0.1
2016-Aug-23 12:31N 19°10' W 096°01'0 0.0
2016-Aug-23 11:33N 19°10' W 096°01'0 0.0
2016-Aug-23 10:33N 19°10' W 096°01'0 0.1
2016-Aug-23 09:33N 19°10' W 096°01'0 0.0
2016-Aug-23 08:33N 19°10' W 096°01'0 0.0
2016-Aug-23 07:34N 19°10' W 096°01'0 0.0
2016-Aug-23 06:33N 19°10' W 096°01'0 0.0
2016-Aug-23 05:33N 19°10' W 096°01'0 0.1
2016-Aug-23 04:33N 19°10' W 096°01'0 0.0
2016-Aug-23 03:33N 19°10' W 096°01'0 0.0
2016-Aug-23 02:33N 19°10' W 096°01'0 0.0
2016-Aug-23 01:33N 19°10' W 096°01'0 0.0
2016-Aug-23 00:33N 19°10' W 096°01'3 3.1
2016-Aug-22 23:33N 19°12' W 095°58'1010.2
2016-Aug-22 22:33N 19°14' W 095°47'1010.1
2016-Aug-22 21:32N 19°20' W 095°39'  
2016-Aug-17 00:14N 16°09' W 061°31'5 1.8
2016-Aug-16 21:33N 16°14' W 061°33'0 0.0
2016-Aug-16 20:31N 16°14' W 061°33'0 0.0
2016-Aug-16 19:31N 16°14' W 061°33'0 0.0
2016-Aug-16 18:32N 16°14' W 061°33'0 0.0
2016-Aug-16 17:33N 16°14' W 061°33'4 4.1
2016-Aug-16 16:33N 16°10' W 061°33'7 6.4
2016-Aug-16 15:33N 16°08' W 061°26'  
Track history (hours):
 
Tides and Currents Weather Stations Pressure Air Temp Water Temp Dewpoint Dewpoint Depression Visibility Wind Speed Wind Dir Waves Ship Positions

Hoegh Berlin

Last reported at 2016-Aug-23 20:31 UTC. Time now 2016-Aug-23 21:04 UTC.
Position N 19°13' W 096°08'.

Length 228 m; draft 8.4 m.

Type: Cargo ship. MMSI: 311019100.

Date/timePositionNaut miles runAvg speedWind from/ knotsBaromVisibWave heightAir tempDewpointWater temp
2016-Aug-23 20:31N 19°13' W 096°08'0 0.0
2016-Aug-23 19:31N 19°13' W 096°08'0 0.0
2016-Aug-23 18:31N 19°13' W 096°08'1 0.8
2016-Aug-23 17:34N 19°12' W 096°08'7 7.2
2016-Aug-23 16:33N 19°10' W 096°01'0 0.3
2016-Aug-23 15:31N 19°10' W 096°01'0 0.1
2016-Aug-23 14:25N 19°10' W 096°00'0 0.1
2016-Aug-23 13:31N 19°10' W 096°01'0 0.1
2016-Aug-23 12:31N 19°10' W 096°01'0 0.0
2016-Aug-23 11:33N 19°10' W 096°01'0 0.0
2016-Aug-23 10:33N 19°10' W 096°01'0 0.1
2016-Aug-23 09:33N 19°10' W 096°01'0 0.0
2016-Aug-23 08:33N 19°10' W 096°01'0 0.0
2016-Aug-23 07:34N 19°10' W 096°01'0 0.0
2016-Aug-23 06:33N 19°10' W 096°01'0 0.0
2016-Aug-23 05:33N 19°10' W 096°01'0 0.1
2016-Aug-23 04:33N 19°10' W 096°01'0 0.0
2016-Aug-23 03:33N 19°10' W 096°01'0 0.0
2016-Aug-23 02:33N 19°10' W 096°01'0 0.0
2016-Aug-23 01:33N 19°10' W 096°01'0 0.0
2016-Aug-23 00:33N 19°10' W 096°01'3 3.1
2016-Aug-22 23:33N 19°12' W 095°58'1010.2
2016-Aug-22 22:33N 19°14' W 095°47'1010.1
2016-Aug-22 21:32N 19°20' W 095°39'  
2016-Aug-17 00:14N 16°09' W 061°31'5 1.8
2016-Aug-16 21:33N 16°14' W 061°33'0 0.0
2016-Aug-16 20:31N 16°14' W 061°33'0 0.0
2016-Aug-16 19:31N 16°14' W 061°33'0 0.0
2016-Aug-16 18:32N 16°14' W 061°33'0 0.0
2016-Aug-16 17:33N 16°14' W 061°33'4 4.1
2016-Aug-16 16:33N 16°10' W 061°33'7 6.4
2016-Aug-16 15:33N 16°08' W 061°26'  

Dump ship's entire track history